Time;durP1;ratioP1;P1;durP2;ratioP2;P2;SDS_P1;SDS_P2;PMS_P1;PMS_P2;Temp;Humidity;BMP_temperature;BMP_pressure;BME280_temperature;BME280_humidity;BME280_pressure;Samples;Min_cycle;Max_cycle;Signal;HPM_P1;HPM_P2
2023/03/29 00:00:20;;;;;;;2.38;2.17;;;;;;;11.59;73.24;101537.06;5106322;28;20021;-88
2023/03/29 00:02:48;;;;;;;2.70;2.50;;;;;;;11.32;72.80;101491.78;5112305;28;20035;-87
2023/03/29 00:05:16;;;;;;;3.00;2.53;;;;;;;11.37;72.28;101502.56;5113438;28;20096;-89
2023/03/29 00:07:42;;;;;;;2.92;2.58;;;;;;;11.61;72.59;101540.69;5082618;28;20109;-88
2023/03/29 00:10:10;;;;;;;2.63;2.42;;;;;;;11.50;73.00;101528.66;5112100;28;20461;-88
2023/03/29 00:12:37;;;;;;;2.75;2.42;;;;;;;11.63;72.67;101550.38;5095772;28;20036;-88
2023/03/29 00:15:03;;;;;;;3.33;2.53;;;;;;;11.53;72.22;101543.63;5109022;28;20092;-88
2023/03/29 00:17:29;;;;;;;3.15;2.47;;;;;;;11.61;72.69;101555.50;5106029;28;20494;-88
2023/03/29 00:19:55;;;;;;;2.80;2.35;;;;;;;11.54;72.83;101546.34;5112621;28;20110;-88
2023/03/29 00:22:21;;;;;;;2.90;2.60;;;;;;;11.31;72.99;101505.69;5092425;28;20131;-87
2023/03/29 00:24:47;;;;;;;2.70;2.50;;;;;;;11.48;72.85;101545.06;5093973;28;20089;-88
2023/03/29 00:27:16;;;;;;;3.42;2.53;;;;;;;11.30;72.83;101519.59;5089274;28;20024;-90
2023/03/29 00:29:41;;;;;;;2.33;2.13;;;;;;;11.20;72.92;101498.91;5100187;28;20020;-87
2023/03/29 00:32:08;;;;;;;2.47;2.28;;;;;;;11.46;73.24;101541.47;5111963;28;20026;-88
2023/03/29 00:34:35;;;;;;;2.83;2.40;;;;;;;11.27;73.14;101508.03;5087601;28;20032;-87
2023/03/29 00:37:02;;;;;;;3.05;2.38;;;;;;;11.43;73.08;101547.41;5113049;28;20027;-87
2023/03/29 00:39:29;;;;;;;2.53;2.33;;;;;;;11.28;73.24;101515.97;5097536;28;20031;-88
2023/03/29 00:41:55;;;;;;;2.70;2.50;;;;;;;11.10;73.03;101496.50;5099501;28;20024;-86
2023/03/29 00:44:59;;;;;;;2.97;2.50;;;;;;;11.52;72.96;101557.53;5110975;28;20019;-87
2023/03/29 00:47:29;;;;;;;3.88;2.40;;;;;;;11.51;72.66;101560.94;5098224;28;20027;-89
2023/03/29 00:49:59;;;;;;;3.55;2.28;;;;;;;11.48;72.73;101560.78;5099760;28;20063;-89
2023/03/29 00:52:29;;;;;;;2.78;2.35;;;;;;;11.44;73.13;101556.16;5110662;28;20023;-88
2023/03/29 00:54:57;;;;;;;2.72;2.40;;;;;;;11.46;73.40;101559.78;5111670;28;20031;-88
2023/03/29 00:57:24;;;;;;;3.20;2.15;;;;;;;11.30;73.18;101536.97;5113461;28;20032;-86
2023/03/29 00:59:50;;;;;;;2.60;2.35;;;;;;;11.49;73.44;101573.03;5080624;28;20133;-88
2023/03/29 01:02:21;;;;;;;2.50;2.30;;;;;;;11.27;73.02;101532.44;5091684;28;20020;-88
2023/03/29 01:04:54;;;;;;;2.40;2.20;;;;;;;11.27;73.01;101527.22;5086946;28;20040;-87
2023/03/29 01:07:27;;;;;;;2.65;2.35;;;;;;;11.45;73.03;101564.09;5080566;28;20056;-88
2023/03/29 01:10:18;;;;;;;2.45;2.25;;;;;;;11.16;72.92;101526.53;5110237;28;20062;-87
2023/03/29 01:12:48;;;;;;;2.70;2.42;;;;;;;11.32;72.87;101537.97;5097226;28;20032;-89
2023/03/29 01:15:17;;;;;;;2.25;1.95;;;;;;;11.11;72.61;101508.75;5079244;28;20036;-89
2023/03/29 01:17:48;;;;;;;2.83;2.40;;;;;;;11.22;73.41;101531.25;5107161;28;20024;-87
2023/03/29 01:20:21;;;;;;;3.17;2.05;;;;;;;11.28;73.39;101552.56;5111291;28;20079;-89
2023/03/29 01:23:15;;;;;;;2.90;2.42;;;;;;;11.37;72.64;101578.41;5110370;28;20026;-88
2023/03/29 01:26:01;;;;;;;2.28;2.08;;;;;;;11.35;72.52;101573.06;5094214;28;20522;-88
2023/03/29 01:28:38;;;;;;;2.15;1.95;;;;;;;11.36;72.87;101566.13;5112392;28;20096;-89
2023/03/29 01:31:13;;;;;;;4.45;2.40;;;;;;;11.30;73.46;101560.50;5087222;28;20035;-89
2023/03/29 01:33:48;;;;;;;2.83;2.30;;;;;;;11.21;73.21;101551.25;5105477;28;20028;-89
2023/03/29 01:36:26;;;;;;;2.40;2.20;;;;;;;11.21;73.11;101542.50;5093370;28;20100;-89
2023/03/29 01:39:02;;;;;;;2.30;2.10;;;;;;;11.23;72.89;101561.81;5094031;28;20027;-89
2023/03/29 01:41:42;;;;;;;3.47;2.10;;;;;;;11.30;73.22;101578.78;5085008;28;20024;-88
2023/03/29 01:44:16;;;;;;;2.35;2.15;;;;;;;11.33;72.78;101586.84;5091565;28;20036;-89
2023/03/29 01:46:47;;;;;;;2.83;2.30;;;;;;;11.23;73.60;101572.28;5090530;28;20035;-89
2023/03/29 01:49:12;;;;;;;2.90;2.53;;;;;;;11.32;73.20;101587.66;5093283;28;20489;-89
2023/03/29 01:52:05;;;;;;;4.28;2.40;;;;;;;11.35;72.88;101590.47;5111015;28;20043;-89
2023/03/29 01:54:40;;;;;;;3.55;2.60;;;;;;;11.35;72.95;101604.44;5099991;28;20059;-90
2023/03/29 01:57:11;;;;;;;3.33;2.05;;;;;;;11.34;72.82;101589.53;5106093;28;20019;-89
2023/03/29 01:59:40;;;;;;;4.70;2.70;;;;;;;11.20;73.06;101577.31;5103002;28;20030;-89
2023/03/29 02:02:10;;;;;;;2.65;2.30;;;;;;;11.06;72.11;101552.00;5093529;28;20019;-88
2023/03/29 02:04:44;;;;;;;3.05;2.25;;;;;;;11.28;72.88;101604.88;5109268;28;20028;-89
2023/03/29 02:07:11;;;;;;;3.83;2.50;;;;;;;10.87;72.99;101529.00;5110517;28;20035;-89
2023/03/29 02:09:37;;;;;;;3.65;2.80;;;;;;;11.26;72.55;101605.53;5108769;28;20084;-89
2023/03/29 02:12:05;;;;;;;3.33;2.83;;;;;;;10.86;72.33;101528.09;5092737;28;20024;-87
2023/03/29 02:14:30;;;;;;;4.00;2.50;;;;;;;11.13;72.82;101590.78;5093256;28;20083;-89
2023/03/29 02:17:08;;;;;;;4.05;2.72;;;;;;;10.88;72.45;101551.69;5111266;28;20496;-88
2023/03/29 02:19:34;;;;;;;2.70;2.47;;;;;;;11.26;72.98;101618.63;5096593;28;20023;-87
2023/03/29 02:22:08;;;;;;;3.60;2.67;;;;;;;10.89;72.25;101551.78;5082310;28;20035;-88
2023/03/29 02:24:35;;;;;;;5.47;3.05;;;;;;;10.96;72.61;101568.78;5108051;28;20072;-87
2023/03/29 02:27:01;;;;;;;3.33;2.60;;;;;;;11.19;72.78;101623.44;5082877;28;20039;-87
2023/03/29 02:29:26;;;;;;;;;;;;;;;11.19;72.11;101623.44;5083533;28;20027;-88
2023/03/29 02:31:55;;;;;;;3.47;2.80;;;;;;;11.04;71.68;101595.44;5079881;28;19964;-88
2023/03/29 02:34:46;;;;;;;3.13;2.83;;;;;;;11.20;72.04;101619.16;5097010;28;20016;-88
2023/03/29 02:37:14;;;;;;;2.75;2.47;;;;;;;11.16;73.17;101618.03;5111306;28;20031;-88
2023/03/29 02:39:40;;;;;;;2.85;2.60;;;;;;;11.09;72.70;101602.78;5076747;28;20009;-86
2023/03/29 02:42:06;;;;;;;;;;;;;;;11.16;72.62;101618.03;5090440;28;20074;-87
2023/03/29 02:44:35;;;;;;;3.00;2.70;;;;;;;10.94;72.88;101581.75;5090088;28;19920;-88
2023/03/29 02:47:12;;;;;;;3.03;2.40;;;;;;;11.17;73.07;101634.63;5104016;28;20027;-88
2023/03/29 02:49:38;;;;;;;3.50;3.20;;;;;;;11.02;72.22;101602.25;5083530;28;20118;-87
2023/03/29 02:52:13;;;;;;;3.03;2.72;;;;;;;10.92;71.95;101583.38;5092631;28;20166;-88
2023/03/29 02:54:41;;;;;;;3.33;2.97;;;;;;;10.87;72.20;101584.75;5110578;28;20038;-87
2023/03/29 02:57:09;;;;;;;4.03;2.90;;;;;;;11.14;72.41;101642.28;5093320;28;20030;-86
2023/03/29 02:59:37;;;;;;;3.60;3.00;;;;;;;10.80;71.70;101583.47;5110326;28;20059;-87
2023/03/29 03:02:04;;;;;;;3.28;2.97;;;;;;;10.89;71.64;101595.31;5086301;28;20237;-86
2023/03/29 03:04:34;;;;;;;2.75;2.40;;;;;;;10.86;71.85;101602.94;5108858;28;20024;-87
2023/03/29 03:07:00;;;;;;;3.10;2.60;;;;;;;11.07;71.93;101630.53;5099437;28;20019;-87
2023/03/29 03:09:26;;;;;;;2.80;2.60;;;;;;;11.09;72.44;101633.22;5100771;28;20024;-87
2023/03/29 03:11:52;;;;;;;3.22;2.92;;;;;;;10.99;72.11;101622.16;5109252;28;20076;-88
2023/03/29 03:14:21;;;;;;;3.08;2.78;;;;;;;10.77;72.27;101595.41;5103634;28;20095;-87
2023/03/29 03:16:47;;;;;;;4.28;2.97;;;;;;;11.03;71.87;101638.03;5109227;28;20089;-88
2023/03/29 03:19:13;;;;;;;;;;;;;;;11.11;71.81;101650.81;5105498;28;20075;-88
2023/03/29 03:21:40;;;;;;;3.72;2.63;;;;;;;10.84;71.96;101597.63;5109756;28;20407;-88
2023/03/29 03:24:06;;;;;;;3.33;3.03;;;;;;;11.05;72.10;101659.94;5110524;28;20504;-89
2023/03/29 03:26:34;;;;;;;2.72;2.45;;;;;;;10.62;72.84;101595.28;5087226;28;20096;-87
2023/03/29 03:29:01;;;;;;;3.22;2.92;;;;;;;10.96;71.86;101642.88;5088226;28;20412;-87
2023/03/29 03:31:27;;;;;;;3.08;2.78;;;;;;;11.12;71.71;101668.31;5096769;28;20023;-88
2023/03/29 03:33:53;;;;;;;4.25;3.05;;;;;;;10.85;71.61;101628.19;5100242;28;20028;-88
2023/03/29 03:36:24;;;;;;;3.88;3.05;;;;;;;10.91;72.44;101641.66;5087843;28;20048;-88
2023/03/29 03:38:52;;;;;;;3.42;3.05;;;;;;;10.72;71.88;101620.34;5109707;28;20420;-88
2023/03/29 03:41:17;;;;;;;3.97;2.70;;;;;;;10.92;71.71;101645.16;5113243;28;20517;-87
2023/03/29 03:43:47;;;;;;;3.78;2.72;;;;;;;10.86;71.89;101634.28;5111825;28;20032;-87
2023/03/29 03:46:19;;;;;;;3.20;2.88;;;;;;;10.76;71.25;101614.50;5113334;28;20089;-87
2023/03/29 03:48:45;;;;;;;3.55;2.95;;;;;;;10.65;71.30;101605.97;5113739;28;20027;-88
2023/03/29 03:51:11;;;;;;;3.85;2.80;;;;;;;10.99;71.48;101671.81;5113036;28;20024;-87
2023/03/29 03:53:37;;;;;;;2.80;2.60;;;;;;;10.82;72.08;101640.16;5100381;28;20035;-88
2023/03/29 03:56:07;;;;;;;2.97;2.67;;;;;;;10.66;71.55;101614.69;5114162;28;20507;-88
2023/03/29 03:58:34;;;;;;;3.58;3.25;;;;;;;10.96;72.34;101674.25;5109578;28;20024;-88
2023/03/29 04:01:00;;;;;;;3.55;2.88;;;;;;;10.99;71.71;101676.16;5112898;28;20031;-88
2023/03/29 04:03:26;;;;;;;3.20;2.90;;;;;;;10.68;71.22;101613.97;5097259;28;20101;-87
2023/03/29 04:05:52;;;;;;;2.80;2.50;;;;;;;10.72;71.85;101623.84;5107855;28;20546;-87
2023/03/29 04:08:23;;;;;;;3.50;2.70;;;;;;;10.94;72.00;101678.47;5087756;28;20020;-87
2023/03/29 04:10:53;;;;;;;3.38;2.70;;;;;;;10.97;72.12;101682.97;5098449;28;20038;-86
2023/03/29 04:13:28;;;;;;;2.80;2.47;;;;;;;10.86;71.95;101671.81;5098950;28;20024;-86
2023/03/29 04:15:55;;;;;;;2.80;2.60;;;;;;;10.99;71.95;101690.13;5106516;27;20087;-88
2023/03/29 04:18:22;;;;;;;2.65;2.45;;;;;;;10.96;72.45;101694.22;5099465;28;20024;-86
2023/03/29 04:20:47;;;;;;;2.97;2.70;;;;;;;10.54;71.77;101630.44;5096412;28;20035;-87
2023/03/29 04:23:13;;;;;;;3.33;2.85;;;;;;;10.93;71.53;101694.03;5093890;28;20425;-86
2023/03/29 04:26:26;;;;;;;3.25;2.90;;;;;;;10.94;72.29;101704.59;5100973;28;20152;-86
2023/03/29 04:28:55;;;;;;;3.40;2.72;;;;;;;10.77;72.27;101686.84;5099239;28;20067;-86
2023/03/29 04:34:42;;;;;;;3.03;2.72;;;;;;;10.86;72.06;101697.94;5105281;28;20059;-88
2023/03/29 04:37:09;;;;;;;3.20;2.90;;;;;;;10.92;72.03;101719.25;5107417;28;20017;-86
2023/03/29 04:39:38;;;;;;;3.08;2.78;;;;;;;10.78;72.05;101694.78;5106447;28;20381;-87
2023/03/29 04:42:05;;;;;;;3.75;3.15;;;;;;;10.91;71.87;101722.66;5087599;28;20028;-87
2023/03/29 04:44:33;;;;;;;2.95;2.67;;;;;;;10.85;71.23;101714.41;5109108;28;20103;-87
2023/03/29 04:47:00;;;;;;;3.67;2.70;;;;;;;10.72;72.13;101689.16;5102404;28;20412;-86
2023/03/29 04:49:25;;;;;;;;;;;;;;;10.95;71.68;101727.28;5105867;28;20023;-86
2023/03/29 04:51:52;;;;;;;3.00;2.70;;;;;;;10.72;71.71;101696.09;5109025;28;19922;-86
2023/03/29 04:54:18;;;;;;;3.17;2.88;;;;;;;10.74;71.64;101711.06;5102913;28;20531;-87
2023/03/29 04:56:44;;;;;;;3.95;3.28;;;;;;;10.79;72.12;101727.03;5102107;28;20028;-87
2023/03/29 04:59:10;;;;;;;3.30;3.00;;;;;;;10.65;71.69;101693.88;5083950;28;20507;-88
2023/03/29 05:08:58;;;;;;;2.95;2.72;;;;;;;10.87;71.34;101744.16;5092326;28;20120;-86
2023/03/29 05:28:34;;;;;;;4.13;3.08;;;;;;;10.54;71.34;101706.16;5031379;28;20050;-89
2023/03/29 05:31:04;;;;;;;2.83;2.60;;;;;;;10.73;71.71;101747.53;5085806;28;20057;-89
2023/03/29 05:33:30;;;;;;;2.92;2.63;;;;;;;10.58;71.72;101727.41;5089000;28;20031;-89
2023/03/29 05:36:00;;;;;;;;;;;;;;;10.79;71.59;101754.09;5105607;28;20112;-90
2023/03/29 05:38:25;;;;;;;6.38;3.53;;;;;;;10.59;71.38;101721.38;5096203;28;20003;-89
2023/03/29 05:40:51;;;;;;;3.25;2.95;;;;;;;10.55;71.29;101718.44;5096607;28;20102;-88
2023/03/29 05:43:17;;;;;;;5.28;2.85;;;;;;;10.48;71.67;101698.84;5108968;28;20035;-89
2023/03/29 05:45:42;;;;;;;3.22;2.92;;;;;;;10.47;70.91;101712.69;5109427;28;20031;-89
2023/03/29 05:48:08;;;;;;;3.47;2.70;;;;;;;10.72;70.95;101750.94;5092476;28;20487;-88
2023/03/29 05:50:36;;;;;;;6.93;2.83;;;;;;;10.29;70.82;101698.31;5106370;28;20028;-87
2023/03/29 05:53:02;;;;;;;4.55;3.10;;;;;;;10.29;71.55;101712.31;5110868;28;20024;-88
2023/03/29 05:55:28;;;;;;;3.92;3.20;;;;;;;10.25;70.91;101711.97;5079115;28;20115;-89
2023/03/29 05:57:54;;;;;;;7.82;2.90;;;;;;;10.35;71.41;101736.25;5091037;28;20561;-87
2023/03/29 06:00:22;;;;;;;4.25;3.13;;;;;;;10.32;71.83;101745.56;5098685;28;20080;-89
2023/03/29 06:02:51;;;;;;;5.22;2.90;;;;;;;10.19;72.02;101736.81;5102386;28;20031;-90
2023/03/29 06:05:19;;;;;;;3.45;2.85;;;;;;;10.49;71.74;101798.97;5088005;28;20505;-92
2023/03/29 06:07:47;;;;;;;4.22;2.90;;;;;;;10.28;71.63;101753.94;5111986;27;20073;-91
2023/03/29 06:10:14;;;;;;;4.80;3.30;;;;;;;10.53;71.31;101793.16;5109899;28;20104;-89
2023/03/29 06:12:40;;;;;;;4.50;3.08;;;;;;;10.60;71.71;101792.78;5087461;28;20027;-90
2023/03/29 06:15:09;;;;;;;5.07;3.42;;;;;;;10.38;71.67;101753.81;5092980;28;20028;-90
2023/03/29 06:17:34;;;;;;;7.40;3.90;;;;;;;10.57;71.69;101813.47;5097547;28;20023;-91
2023/03/29 06:20:05;;;;;;;3.97;2.90;;;;;;;10.58;71.55;101817.88;5090359;28;20024;-88
2023/03/29 06:22:36;;;;;;;4.53;3.10;;;;;;;10.55;72.04;101818.59;5103424;28;20102;-92
2023/03/29 06:25:03;;;;;;;7.00;3.60;;;;;;;10.28;71.22;101766.97;5088244;28;20035;-88
2023/03/29 06:27:28;;;;;;;6.53;3.33;;;;;;;10.61;71.24;101820.72;5105627;28;20031;-89
2023/03/29 06:29:54;;;;;;;8.15;4.10;;;;;;;10.41;71.96;101806.25;5110604;28;20027;-90
2023/03/29 06:32:19;;;;;;;6.30;3.25;;;;;;;10.60;71.27;101834.56;5092921;28;20450;-90
2023/03/29 06:34:45;;;;;;;9.85;3.60;;;;;;;10.24;71.82;101778.91;5111328;28;20043;-89
2023/03/29 06:37:11;;;;;;;9.85;3.95;;;;;;;10.35;71.76;101790.13;5101841;28;20107;-89
2023/03/29 06:39:38;;;;;;;7.63;3.83;;;;;;;10.41;72.83;101802.72;5110867;28;20037;-91
2023/03/29 06:42:05;;;;;;;11.65;4.05;;;;;;;10.64;72.06;101835.72;5110800;28;20451;-90
2023/03/29 06:44:31;;;;;;;10.35;3.70;;;;;;;10.54;73.01;101821.06;5111229;28;20081;-90
2023/03/29 06:46:57;;;;;;;10.75;3.67;;;;;;;10.34;72.36;101786.63;5096595;28;20033;-90
2023/03/29 06:49:23;;;;;;;8.70;3.80;;;;;;;10.47;73.33;101821.47;5073759;28;20109;-90
2023/03/29 06:51:51;;;;;;;11.23;4.50;;;;;;;10.28;72.62;101785.25;5086546;28;20032;-89
2023/03/29 06:54:18;;;;;;;10.18;3.92;;;;;;;10.42;72.82;101810.69;5110641;28;20047;-90
2023/03/29 06:56:46;;;;;;;9.60;4.03;;;;;;;10.36;73.68;101805.03;5109705;28;20088;-90
2023/03/29 06:59:13;;;;;;;11.98;4.30;;;;;;;10.27;73.42;101779.13;5094149;28;20114;-90
2023/03/29 07:01:39;;;;;;;11.70;4.13;;;;;;;10.51;73.91;101819.16;5110461;28;20105;-90
2023/03/29 07:04:07;;;;;;;13.02;4.18;;;;;;;10.48;73.75;101807.63;5090239;28;20024;-90
2023/03/29 07:06:35;;;;;;;12.70;4.22;;;;;;;10.48;73.58;101816.34;5107509;28;20082;-90
2023/03/29 07:09:05;;;;;;;9.57;4.15;;;;;;;10.54;73.84;101813.25;5093176;28;20032;-89
2023/03/29 07:11:35;;;;;;;10.60;4.10;;;;;;;10.55;73.42;101808.13;5103598;28;20051;-89
2023/03/29 07:14:04;;;;;;;8.88;3.47;;;;;;;10.50;73.92;101796.47;5105480;28;20085;-88
2023/03/29 07:16:31;;;;;;;10.18;3.72;;;;;;;10.66;74.70;101840.25;5109344;28;20524;-89
2023/03/29 07:18:57;;;;;;;11.10;4.45;;;;;;;10.35;73.62;101780.63;5096668;28;20028;-90
2023/03/29 07:21:23;;;;;;;11.05;4.10;;;;;;;10.24;73.85;101768.47;5113568;28;20095;-89
2023/03/29 07:23:51;;;;;;;11.65;4.28;;;;;;;10.42;74.26;101796.72;5110388;28;20028;-89
2023/03/29 07:26:19;;;;;;;9.18;3.85;;;;;;;10.57;74.50;101822.22;5104675;28;20047;-91
2023/03/29 07:28:48;;;;;;;13.00;4.18;;;;;;;10.35;74.84;101797.97;5103566;28;20542;-90
2023/03/29 07:31:16;;;;;;;8.75;3.92;;;;;;;10.56;74.47;101853.44;5102378;28;20140;-90
2023/03/29 07:33:44;;;;;;;13.10;4.07;;;;;;;10.47;74.54;101838.03;5089735;28;20559;-89
2023/03/29 07:36:09;;;;;;;8.60;3.85;;;;;;;10.44;74.21;101840.44;5111361;28;20051;-89
2023/03/29 07:38:35;;;;;;;7.40;3.47;;;;;;;10.64;74.39;101857.50;5113669;27;20027;-90
2023/03/29 07:41:05;;;;;;;11.00;4.07;;;;;;;10.71;74.68;101862.38;5092754;28;20028;-91
2023/03/29 07:43:31;;;;;;;11.50;3.80;;;;;;;10.50;75.06;101830.44;5088113;28;20028;-89
2023/03/29 07:46:03;;;;;;;6.65;3.88;;;;;;;10.75;75.30;101876.56;5083957;28;20852;-90
2023/03/29 07:48:35;;;;;;;7.40;3.83;;;;;;;10.69;75.70;101869.22;5107126;28;20111;-89
2023/03/29 07:51:01;;;;;;;10.32;3.83;;;;;;;10.61;74.61;101848.56;5096447;28;20051;-90
2023/03/29 07:53:32;;;;;;;8.73;4.22;;;;;;;10.75;74.69;101868.72;5114515;28;20378;-91
2023/03/29 07:55:58;;;;;;;8.02;3.70;;;;;;;10.64;75.27;101856.59;5096637;28;20042;-90
2023/03/29 07:58:23;;;;;;;6.63;3.47;;;;;;;10.74;75.68;101872.16;5112587;28;20040;-91
2023/03/29 08:00:50;;;;;;;5.78;3.30;;;;;;;10.60;74.83;101837.19;5114038;28;20466;-90
2023/03/29 08:03:16;;;;;;;8.70;3.38;;;;;;;10.84;74.79;101874.63;5115296;28;20867;-89
2023/03/29 08:05:44;;;;;;;6.07;3.17;;;;;;;10.69;75.65;101847.38;5113364;28;20035;-90
2023/03/29 08:08:10;;;;;;;7.38;3.40;;;;;;;10.84;75.32;101873.69;5111159;28;20045;-90
2023/03/29 08:10:38;;;;;;;7.65;3.55;;;;;;;10.77;75.45;101859.28;5094369;28;20107;-90
2023/03/29 08:13:07;;;;;;;11.45;3.60;;;;;;;10.69;75.40;101856.16;5093412;28;20023;-90
2023/03/29 08:15:40;;;;;;;7.13;3.60;;;;;;;10.78;75.84;101858.50;5102033;28;20115;-90
2023/03/29 08:18:07;;;;;;;5.68;3.20;;;;;;;10.63;75.73;101839.13;5112507;28;20134;-90
2023/03/29 08:20:32;;;;;;;5.10;3.40;;;;;;;10.67;75.48;101846.38;5102529;28;20020;-91
2023/03/29 08:22:59;;;;;;;8.27;3.30;;;;;;;10.61;75.40;101843.34;5094994;28;20035;-91
2023/03/29 08:25:26;;;;;;;6.43;3.40;;;;;;;10.64;75.75;101857.50;5085727;28;20024;-88
2023/03/29 08:27:52;;;;;;;7.25;3.65;;;;;;;10.57;75.42;101850.94;5088006;28;20031;-91
2023/03/29 08:30:18;;;;;;;7.43;3.47;;;;;;;10.69;75.63;101869.22;5106288;28;20034;-89
2023/03/29 08:32:43;;;;;;;6.00;3.33;;;;;;;10.83;75.28;101877.09;5103791;28;20034;-89
2023/03/29 08:35:09;;;;;;;5.55;3.13;;;;;;;10.71;74.23;101844.09;5091979;28;20083;-90
2023/03/29 08:37:36;;;;;;;7.25;3.42;;;;;;;10.78;74.28;101863.72;5112828;28;20024;-90
2023/03/29 08:40:04;;;;;;;6.60;3.20;;;;;;;10.85;74.35;101889.47;5112575;28;20023;-91
2023/03/29 08:42:55;;;;;;;5.15;3.00;;;;;;;10.86;74.95;101877.31;5108333;28;20024;-90
2023/03/29 08:45:53;;;;;;;4.40;2.90;;;;;;;10.89;74.47;101880.16;5099225;28;20036;-91
2023/03/29 08:48:21;;;;;;;4.28;3.30;;;;;;;10.88;74.85;101884.50;5052040;28;20040;-91
2023/03/29 08:50:51;;;;;;;5.40;2.80;;;;;;;10.75;74.96;101861.81;5110651;28;20786;-90
2023/03/29 08:53:40;;;;;;;6.63;3.38;;;;;;;10.90;74.53;101887.19;5090390;28;20422;-90
2023/03/29 08:56:08;;;;;;;6.18;3.10;;;;;;;10.91;74.47;101894.25;5085932;28;20126;-90
2023/03/29 08:58:36;;;;;;;6.05;3.10;;;;;;;10.71;74.60;101854.56;5113172;28;20723;-90
2023/03/29 09:01:05;;;;;;;5.15;3.30;;;;;;;10.62;75.26;101851.25;5096084;28;20028;-91
2023/03/29 09:04:01;;;;;;;6.10;3.47;;;;;;;10.81;75.80;101897.91;5092790;28;20493;-91
2023/03/29 09:06:32;;;;;;;5.97;3.20;;;;;;;10.77;75.21;101883.72;5056320;28;20127;-91
2023/03/29 09:09:00;;;;;;;5.95;3.28;;;;;;;10.71;75.19;101857.16;5074137;28;20053;-90
2023/03/29 09:12:07;;;;;;;5.78;3.50;;;;;;;10.83;75.47;101882.34;5095562;28;20114;-90
2023/03/29 09:14:34;;;;;;;5.50;3.15;;;;;;;10.90;74.71;101887.19;5113179;28;20048;-90
2023/03/29 09:17:15;;;;;;;6.03;3.08;;;;;;;10.90;75.16;101897.63;5107673;28;20032;-88
2023/03/29 09:19:55;;;;;;;4.25;2.80;;;;;;;10.74;75.04;101865.22;5110447;28;20030;-90
2023/03/29 09:22:41;;;;;;;3.15;2.63;;;;;;;10.90;75.45;101887.19;5112913;28;20054;-89
2023/03/29 09:25:22;;;;;;;4.85;3.00;;;;;;;10.73;75.71;101857.25;5112287;28;20036;-90
2023/03/29 09:27:58;;;;;;;6.00;2.95;;;;;;;10.91;75.71;101891.63;5094993;28;20028;-90
2023/03/29 09:30:34;;;;;;;4.65;3.00;;;;;;;10.92;75.51;101911.72;5111351;28;20481;-89
2023/03/29 09:33:04;;;;;;;5.22;2.92;;;;;;;10.84;75.88;101887.69;5111298;28;20068;-90
2023/03/29 09:35:52;;;;;;;5.93;2.80;;;;;;;10.88;75.21;101896.63;5093506;28;20043;-89
2023/03/29 09:38:19;;;;;;;3.78;2.70;;;;;;;10.92;75.33;101896.03;5081040;28;20027;-91
2023/03/29 09:40:50;;;;;;;4.00;3.03;;;;;;;10.64;75.98;101854.91;5087744;28;20058;-89
2023/03/29 09:43:20;;;;;;;4.10;3.25;;;;;;;10.93;75.39;101898.78;5074815;28;20036;-89
2023/03/29 09:45:52;;;;;;;5.75;3.15;;;;;;;10.59;75.95;101840.63;5109197;28;20117;-89
2023/03/29 09:48:20;;;;;;;3.70;2.65;;;;;;;10.81;76.16;101882.22;5095085;28;20044;-89
2023/03/29 09:50:50;;;;;;;4.57;3.03;;;;;;;10.83;75.41;101877.09;5091271;28;20107;-88
2023/03/29 09:53:17;;;;;;;4.53;2.53;;;;;;;10.93;75.28;101893.53;5087885;28;20031;-89
2023/03/29 09:55:45;;;;;;;4.10;3.03;;;;;;;10.75;75.31;101859.19;5078477;28;20531;-89
2023/03/29 09:58:18;;;;;;;4.10;2.72;;;;;;;10.90;75.59;101871.50;5076968;28;20420;-89
2023/03/29 10:00:45;;;;;;;3.33;2.58;;;;;;;10.76;75.68;101865.31;5074949;28;20024;-91
2023/03/29 10:03:23;;;;;;;3.53;2.60;;;;;;;10.94;75.91;101898.00;5060136;28;20115;-90
2023/03/29 10:05:52;;;;;;;3.83;2.50;;;;;;;10.74;75.88;101857.38;5095904;28;20028;-90
2023/03/29 10:08:29;;;;;;;3.13;2.38;;;;;;;10.95;76.32;101893.66;5095712;28;20023;-89
2023/03/29 10:11:07;;;;;;;3.00;2.70;;;;;;;10.98;75.45;101894.78;5078030;28;20040;-88
2023/03/29 10:13:43;;;;;;;4.43;2.55;;;;;;;10.90;75.31;101887.19;5082643;28;20404;-89
2023/03/29 10:16:37;;;;;;;3.92;2.60;;;;;;;10.93;75.56;101888.31;5088717;28;20032;-89
2023/03/29 10:19:33;;;;;;;4.22;2.63;;;;;;;11.02;75.20;101890.66;5102476;28;20035;-90
2023/03/29 10:22:04;;;;;;;4.10;2.38;;;;;;;10.96;75.40;101885.00;5083530;28;20096;-90
2023/03/29 10:24:32;;;;;;;4.68;2.42;;;;;;;11.02;75.66;101884.53;5087770;28;20424;-89
2023/03/29 10:27:03;;;;;;;5.18;2.78;;;;;;;10.87;75.23;101859.13;5079819;28;20038;-89
2023/03/29 10:29:41;;;;;;;4.20;2.70;;;;;;;10.75;76.04;101833.06;5072630;28;20392;-89
2023/03/29 10:32:22;;;;;;;3.70;2.70;;;;;;;11.01;75.99;101886.25;5084708;28;20024;-88
2023/03/29 10:34:49;;;;;;;3.30;2.53;;;;;;;10.74;76.05;101840.78;5109241;28;20031;-90
2023/03/29 10:37:20;;;;;;;4.28;2.60;;;;;;;10.97;75.88;101868.53;5070320;28;20102;-90
2023/03/29 10:39:48;;;;;;;3.25;2.42;;;;;;;10.89;76.05;101846.19;5074814;28;20040;-90
2023/03/29 10:42:22;;;;;;;4.93;2.33;;;;;;;10.92;75.69;101859.44;5086958;28;20474;-90
2023/03/29 10:44:59;;;;;;;2.67;2.45;;;;;;;10.96;76.50;101869.31;5094822;28;20024;-89
2023/03/29 10:47:33;;;;;;;4.07;2.50;;;;;;;10.98;76.60;101871.28;5094141;28;20572;-90
2023/03/29 10:50:00;;;;;;;3.40;2.50;;;;;;;10.94;76.94;101865.69;5086009;28;20119;-88
2023/03/29 10:52:28;;;;;;;3.42;2.50;;;;;;;10.81;76.91;101829.97;5097262;28;20019;-90
2023/03/29 11:02:20;;;;;;;4.68;2.35;;;;;;;11.06;77.70;101868.28;5110407;28;20145;-89
2023/03/29 11:05:16;;;;;;;6.43;2.67;;;;;;;11.02;77.86;101858.41;5072480;28;20024;-90
2023/03/29 11:11:09;;;;;;;;;;;;;;;11.13;77.79;101868.81;5096103;28;20042;-90
2023/03/29 11:14:02;;;;;;;6.45;2.97;;;;;;;10.73;77.70;101797.16;5080269;28;19931;-89
2023/03/29 11:17:00;;;;;;;4.40;2.75;;;;;;;10.77;78.56;101801.81;5095130;28;20080;-89
2023/03/29 11:19:46;;;;;;;5.05;2.90;;;;;;;11.08;78.75;101871.91;5065556;28;20420;-89
2023/03/29 11:22:36;;;;;;;4.95;2.97;;;;;;;11.09;78.23;101873.69;5102637;28;20484;-89
2023/03/29 11:25:10;;;;;;;6.10;3.03;;;;;;;11.12;78.90;101871.31;5102942;28;20068;-89
2023/03/29 11:27:42;;;;;;;4.75;3.03;;;;;;;11.15;78.51;101867.22;5115403;28;20020;-89
2023/03/29 11:30:22;;;;;;;5.32;2.75;;;;;;;11.09;78.07;101858.00;5110897;28;20120;-90
2023/03/29 11:33:31;;;;;;;4.38;2.83;;;;;;;11.18;78.88;101875.25;5060086;28;20028;-90
2023/03/29 11:36:04;;;;;;;5.85;2.97;;;;;;;11.15;78.62;101882.91;5075377;28;20202;-89
2023/03/29 11:38:49;;;;;;;9.50;3.10;;;;;;;10.83;78.76;101836.19;5083515;28;20043;-88
2023/03/29 11:41:17;;;;;;;4.57;3.03;;;;;;;10.93;78.63;101858.66;5097051;28;20032;-90
2023/03/29 11:43:53;;;;;;;4.93;2.80;;;;;;;11.13;78.86;101894.03;5073147;28;20041;-89
2023/03/29 11:46:39;;;;;;;6.20;2.80;;;;;;;11.09;79.02;101900.78;5080243;28;20427;-90
2023/03/29 11:49:14;;;;;;;5.30;3.55;;;;;;;11.06;79.25;101889.19;5112194;28;20031;-90
2023/03/29 11:51:47;;;;;;;6.18;2.70;;;;;;;10.88;78.63;101855.75;5096997;28;20027;-90
2023/03/29 11:54:40;;;;;;;5.47;2.67;;;;;;;11.03;78.80;101883.72;5067842;28;20035;-89
2023/03/29 11:57:44;;;;;;;6.50;2.97;;;;;;;10.93;78.68;101882.19;5100493;28;20051;-89
2023/03/29 12:00:23;;;;;;;5.63;2.92;;;;;;;10.98;78.93;101886.03;5071094;28;20100;-90
2023/03/29 12:03:19;;;;;;;5.72;3.17;;;;;;;10.99;78.35;101888.75;5102463;28;20400;-90
2023/03/29 12:05:51;;;;;;;4.05;2.78;;;;;;;10.80;78.87;101862.13;5050281;28;20190;-91
2023/03/29 12:08:23;;;;;;;4.13;2.95;;;;;;;10.80;78.24;101883.94;5060544;28;20050;-90
2023/03/29 12:11:11;;;;;;;9.43;4.40;;;;;;;10.90;78.01;101898.56;5061248;28;20028;-90
2023/03/29 12:13:44;;;;;;;8.98;3.60;;;;;;;10.93;77.97;101903.09;5081283;28;20028;-89
2023/03/29 12:16:16;;;;;;;5.13;3.40;;;;;;;11.03;77.52;101905.56;5064551;28;20024;-90
2023/03/29 12:18:46;;;;;;;7.03;3.50;;;;;;;10.44;77.13;101824.75;5091011;28;20031;-90
2023/03/29 12:21:21;;;;;;;5.65;3.17;;;;;;;10.31;77.13;101809.91;5085506;28;20051;-90
2023/03/29 12:24:01;;;;;;;6.70;3.28;;;;;;;10.49;77.43;101838.16;5083713;28;20493;-88